AirNav   Bose Proflight and A20 aviation headeets
 
 1443 users online  

1OR4 North Plains Gliderport
North Plains, Oregon, USA

GOING TO NORTH PLAINS?


FAA INFORMATION EFFECTIVE 31 JANUARY 2019

Location

FAA Identifier: 1OR4
Lat/Long: 45-36-14.4130N / 123-01-29.3830W
45-36.240217N / 123-01.489717W
45.6040036 / -123.0248286
(estimated)
Elevation: 210 ft. / 64 m (estimated)
Variation: 20E (1985)
From city: 2 miles W of NORTH PLAINS, OR
Time zone: UTC -8 (UTC -7 during Daylight Saving Time)
Zip code: 97133

Gliderport Operations

Gliderport use: Private use. Permission required prior to landing
Control tower: no
ARTCC: SEATTLE CENTER
FSS: MC MINNVILLE FLIGHT SERVICE STATION
Attendance: APR-NOV IREG 1000-1800
Wind indicator: yes
Segmented circle: no

Gliderport Communications

WX ASOS at HIO (5 nm SE): PHONE 503-640-2984
WX ASOS at SPB (12 nm NE): 135.875 (503-543-6401)
WX ASOS at VUO (15 nm E): 135.125 (360-696-1280)
WX ASOS at PDX (18 nm E): PHONE (503) 493-7687

Nearby radio navigation aids

VOR radial/distance  VOR name  Freq  Var
UBGr332/15.2NEWBERG VOR/DME117.4021E
BTGr224/20.1BATTLE GROUND VORTAC116.6021E

 
NDB name  Hdg/Dist  Freq  Var  ID
BANKS135/1.835616EPND .--. -. -..
KELSO171/33.425617ELSO .-.. ... ---

Gliderport Services

Airframe service: NONE
Powerplant service: NONE

Runway Information

Runway 9/27

Dimensions: 2000 x 200 ft. / 610 x 61 m
Surface: turf
RUNWAY 9  RUNWAY 27
Traffic pattern: leftleft
Obstructions: pline bldg, 500 ft. from runwaynone

Gliderport Ownership and Management from official FAA records

Ownership: Privately-owned
Owner: WILLAMETTE VALLEY SOARING CLB
PMB 166, 25 NW 23RD PL, STE 6, 25 MW 23RD PL, STE 6
PORTLAND, OR 97210
Phone 503-647-0913
Manager: GEORGE O'LEARY, TREASURER
PMB 166, 25 NW 23RD PL, STE 6, 25 MW 23RD PL, STE 6
PORTLAND, OR 97210
Phone 503-223-4262

Gliderport Operational Statistics

Aircraft based on the field: 10
Single engine airplanes: 2
Gliders airplanes: 8
    

Additional Remarks

FIELD IS USED FOR SAILPLANE OPERATIONS
FOR CD CTC PORTLAND APCH AT 503-493-7545.

Instrument Procedures

There are no published instrument procedures at 1OR4.

Some nearby airports with instrument procedures:

KHIO - Portland-Hillsboro Airport (5 nm SE)
KSPB - Scappoose Industrial Airpark (12 nm NE)
KVUO - Pearson Field Airport (15 nm E)
KPDX - Portland International Airport (18 nm E)
KUAO - Aurora State Airport (24 nm SE)
 
Loc | Ops | Rwys | IFR | FBO | Links
Com | Nav | Svcs | Stats | Notes
Area around 1OR4 (North Plains Gliderport)
 
Road maps at: MapQuest Bing Google
 
Aerial photo
WARNING: Photo may not be current or correct
Aerial photo of 1OR4 (North Plains Gliderport)
Do you have a better or more recent aerial photo of North Plains Gliderport that you would like to share? If so, please send us your photo.

 
Sectional chart

 
Airport distance calculator
Flying to North Plains Gliderport? Find the distance to fly.

From to 1OR4

Sunrise and sunset
Times for 22-Feb-2019
 Local
(UTC-8)
 Zulu
(UTC)
Morning civil twilight06:3314:33
Sunrise07:0415:04
Sunset17:4801:48
Evening civil twilight18:1802:18

Current date and time
Zulu (UTC)  22-Feb-2019 15:36:53
Local (UTC-8)  22-Feb-2019 07:36:53
 
METAR
KHIO 
5nm SE 
221453Z 00000KT 9SM BKN100 M01/M02 A3012 RMK AO2 SLP204 T10111022 58003
KSPB 
12nm NE 
221453Z AUTO 00000KT 10SM SCT095 00/M02 A3013 RMK AO2 SLP202 T00001022 58003
KVUO 
16nm E 
221453Z AUTO 11006KT 10SM BKN110 01/M03 A3013 RMK AO2 SLP204 T00061028 58004
KPDX 
18nm E 
221453Z 11009KT 10SM BKN110 OVC150 01/M03 A3014 RMK AO2 SLP206 T00061028 58003
TAF
KHIO 
5nm SE 
221128Z 2212/2312 VRB03KT P6SM SCT120 BKN200 FM221800 18004KT P6SM SCT060 BKN120 FM222100 19010KT P6SM -RA BKN025 OVC050 FM222300 21008KT 6SM -RA BKN015 OVC040 FM230100 28004KT P6SM -SHRA SCT025 BKN040 FM230600 VRB03KT P6SM VCSH BKN040
KPDX 
18nm E 
221128Z 2212/2312 11006KT P6SM SCT120 BKN200 FM221800 16007KT P6SM SCT060 BKN120 FM222100 19012KT P6SM -RA BKN025 OVC050 FM222300 20010KT 6SM -RA BKN015 OVC040 FM230100 28007KT P6SM VCSH SCT025 BKN040 FM230600 VRB03KT P6SM VCSH BKN040
NOTAMs
Click for the latest NOTAMs
NOTAMs are issued by the DoD/FAA and will open in a separate window not controlled by AirNav.

 

 
 

Aviation Businesses, Services, and Facilities

  
 Business Name 
 
 Contact 
 
 Services / Description 
 
Distance
 
Comments
  
Willamette Valley Soaring Club 503-647-0913
[web site]
[email]
Airport management, Flight training, Aerial tours / aerial sightseeing, Flying club

More info about Willamette Valley Soaring Club
on airport  
   write
 

Would you like to see your business listed on this page?

 If your business provides an interesting product or service to pilots, flight crews, aircraft, or users of the North Plains Gliderport, you should consider listing it here.  To start the listing process, click on the button below
 
Add a business
 

Other Pages about North Plains Gliderport

Update a link
 
Copyright © AirNav, LLC. All rights reserved. Privacy Policy  Contact